createdAt,value
2023-02-07T00:00:12.319Z,96.92
2023-02-07T00:01:32.566Z,96.92
2023-02-07T00:02:12.339Z,96.82
2023-02-07T00:03:12.609Z,96.71
2023-02-07T00:04:12.303Z,96.61
2023-02-07T00:05:12.542Z,96.61
2023-02-07T00:06:12.307Z,96.50
2023-02-07T00:07:13.993Z,96.40
2023-02-07T00:08:12.327Z,96.50
2023-02-07T00:09:12.557Z,96.50
2023-02-07T00:10:12.312Z,96.61
2023-02-07T00:11:32.566Z,96.50
2023-02-07T00:12:12.325Z,96.44
2023-02-07T00:13:12.542Z,96.34
2023-02-07T00:14:12.332Z,96.44
2023-02-07T00:15:12.542Z,96.44
2023-02-07T00:16:12.357Z,96.44
2023-02-07T00:17:12.550Z,96.34
2023-02-07T00:18:12.300Z,96.44
2023-02-07T00:19:12.041Z,96.34
2023-02-07T00:20:12.307Z,96.44
2023-02-07T00:21:32.556Z,96.23
2023-02-07T00:22:12.299Z,96.13
2023-02-07T00:23:12.022Z,96.13
2023-02-07T00:24:12.287Z,96.23
2023-02-07T00:25:12.022Z,96.34
2023-02-07T00:26:12.282Z,96.34
2023-02-07T00:27:12.014Z,96.34
2023-02-07T00:28:12.326Z,96.38
2023-02-07T00:29:11.996Z,96.28
2023-02-07T00:30:12.254Z,96.28
2023-02-07T00:31:32.080Z,96.38
2023-02-07T00:32:12.250Z,96.38
2023-02-07T00:33:11.998Z,96.38
2023-02-07T00:34:12.235Z,96.59
2023-02-07T00:35:12.003Z,96.80
2023-02-07T00:36:13.714Z,96.91
2023-02-07T00:37:11.990Z,97.01
2023-02-07T00:38:12.265Z,96.91
2023-02-07T00:39:12.023Z,96.80
2023-02-07T00:40:12.271Z,96.70
2023-02-07T00:41:32.025Z,96.70
2023-02-07T00:42:12.280Z,96.91
2023-02-07T00:43:21.424Z,96.91
2023-02-07T00:44:13.264Z,97.01
2023-02-07T00:45:11.990Z,97.22
2023-02-07T00:46:12.270Z,97.22
2023-02-07T00:47:11.995Z,97.22
2023-02-07T00:48:12.238Z,97.22
2023-02-07T00:49:11.984Z,97.22
2023-02-07T00:50:11.731Z,97.22
2023-02-07T00:51:33.430Z,97.22
2023-02-07T00:52:11.742Z,97.22
2023-02-07T00:53:11.981Z,97.32
2023-02-07T00:54:12.233Z,97.43
2023-02-07T00:55:11.972Z,97.47
2023-02-07T00:56:11.758Z,97.58
2023-02-07T00:57:12.000Z,97.53
2023-02-07T00:58:11.737Z,97.58
2023-02-07T00:59:11.986Z,97.53
2023-02-07T01:00:11.751Z,97.53
2023-02-07T01:01:32.063Z,97.85
2023-02-07T01:02:11.748Z,97.95
2023-02-07T01:03:12.010Z,97.95
2023-02-07T01:04:11.771Z,97.95
2023-02-07T01:05:12.026Z,98.05
2023-02-07T01:06:11.769Z,97.99
2023-02-07T01:07:12.007Z,97.99
2023-02-07T01:08:11.753Z,97.99
2023-02-07T01:09:11.997Z,98.10
2023-02-07T01:10:11.747Z,98.21
2023-02-07T01:11:31.998Z,98.31
2023-02-07T01:12:11.741Z,98.31
2023-02-07T01:13:11.979Z,98.41
2023-02-07T01:14:11.733Z,98.41
2023-02-07T01:15:11.969Z,98.31
2023-02-07T01:16:11.728Z,98.31
2023-02-07T01:17:13.421Z,98.31
2023-02-07T01:18:11.761Z,98.21
2023-02-07T01:19:11.497Z,98.31
2023-02-07T01:20:11.770Z,98.31
2023-02-07T01:21:31.572Z,98.21
2023-02-07T01:22:11.759Z,98.21
2023-02-07T01:23:11.526Z,98.21
2023-02-07T01:24:11.767Z,98.21
2023-02-07T01:25:11.529Z,98.21
2023-02-07T01:26:11.756Z,98.10
2023-02-07T01:27:11.952Z,98.21
2023-02-07T01:28:11.808Z,98.10
2023-02-07T01:29:11.505Z,97.99
2023-02-07T01:30:11.760Z,97.99
2023-02-07T01:31:31.704Z,97.94
2023-02-07T01:32:11.757Z,97.83
2023-02-07T01:33:11.510Z,97.83
2023-02-07T01:34:11.792Z,97.72
2023-02-07T01:35:12.268Z,97.72
2023-02-07T01:36:11.780Z,97.62
2023-02-07T01:37:11.531Z,97.62
2023-02-07T01:38:11.280Z,97.62
2023-02-07T01:39:11.541Z,97.52
2023-02-07T01:40:11.282Z,97.62
2023-02-07T01:41:31.534Z,97.52
2023-02-07T01:42:11.272Z,97.52
2023-02-07T01:43:11.509Z,97.83
2023-02-07T01:44:11.257Z,97.94
2023-02-07T01:45:12.952Z,98.04
2023-02-07T01:46:11.295Z,98.14
2023-02-07T01:47:11.500Z,98.14
2023-02-07T01:48:11.261Z,98.04
2023-02-07T01:49:11.508Z,97.94
2023-02-07T01:50:11.255Z,97.83
2023-02-07T01:51:31.506Z,97.62
2023-02-07T01:52:11.263Z,97.52
2023-02-07T01:53:11.518Z,97.52
2023-02-07T01:54:11.236Z,97.41
2023-02-07T01:55:11.483Z,97.41
2023-02-07T01:56:17.661Z,97.41
2023-02-07T01:57:12.472Z,97.41
2023-02-07T01:58:11.205Z,97.41
2023-02-07T01:59:11.475Z,97.52
2023-02-07T02:00:11.932Z,97.52
2023-02-07T02:01:31.541Z,97.62
2023-02-07T02:02:11.215Z,97.52
2023-02-07T02:03:11.475Z,97.67
2023-02-07T02:04:11.207Z,97.77
2023-02-07T02:05:11.469Z,97.77
2023-02-07T02:06:11.804Z,97.98
2023-02-07T02:07:11.490Z,98.19
2023-02-07T02:08:11.226Z,98.08
2023-02-07T02:09:10.995Z,98.19
2023-02-07T02:10:11.218Z,98.29
2023-02-07T02:11:31.997Z,98.35
2023-02-07T02:12:11.224Z,98.46
2023-02-07T02:13:12.422Z,98.46
2023-02-07T02:14:11.233Z,98.46
2023-02-07T02:15:10.987Z,98.35
2023-02-07T02:16:11.264Z,98.35
2023-02-07T02:17:10.970Z,98.35
2023-02-07T02:18:11.204Z,98.35
2023-02-07T02:19:10.990Z,98.35
2023-02-07T02:20:11.200Z,98.46
2023-02-07T02:21:30.982Z,98.67
2023-02-07T02:22:11.188Z,98.67
2023-02-07T02:23:10.962Z,98.88
2023-02-07T02:24:11.228Z,98.98
2023-02-07T02:25:10.982Z,99.08
2023-02-07T02:26:11.209Z,99.19
2023-02-07T02:27:11.888Z,99.29
2023-02-07T02:28:11.247Z,99.40
2023-02-07T02:29:10.982Z,99.46
2023-02-07T02:30:11.226Z,99.46
2023-02-07T02:31:31.003Z,99.46
2023-02-07T02:32:11.220Z,99.66
2023-02-07T02:33:10.969Z,99.56
2023-02-07T02:34:10.700Z,99.77
2023-02-07T02:35:10.980Z,99.88
2023-02-07T02:36:10.708Z,99.88
2023-02-07T02:37:10.965Z,99.98
2023-02-07T02:38:11.198Z,99.99
2023-02-07T02:39:10.948Z,99.99
2023-02-07T02:40:10.687Z,99.99
2023-02-07T02:41:30.962Z,99.99
2023-02-07T02:42:10.692Z,99.99
2023-02-07T02:43:10.953Z,99.99
2023-02-07T02:44:10.699Z,99.99
2023-02-07T02:45:10.949Z,99.99
2023-02-07T02:46:10.782Z,99.99
2023-02-07T02:47:10.956Z,99.99
2023-02-07T02:48:10.686Z,99.99
2023-02-07T02:49:11.126Z,99.99
2023-02-07T02:50:10.711Z,99.99
2023-02-07T02:51:31.862Z,99.99
2023-02-07T02:52:10.706Z,99.99
2023-02-07T02:53:10.950Z,99.99
2023-02-07T02:54:10.668Z,99.99
2023-02-07T02:55:12.376Z,99.99
2023-02-07T02:56:10.686Z,99.99
2023-02-07T02:57:10.939Z,99.99
2023-02-07T02:58:10.685Z,99.99
2023-02-07T02:59:11.006Z,99.99
2023-02-07T03:00:10.678Z,99.99
2023-02-07T03:01:30.999Z,99.99
2023-02-07T03:02:10.687Z,99.99
2023-02-07T03:03:10.906Z,99.99
2023-02-07T03:04:10.664Z,99.99
2023-02-07T03:05:10.924Z,99.99
2023-02-07T03:06:10.659Z,99.99
2023-02-07T03:07:10.891Z,99.99
2023-02-07T03:08:10.646Z,99.99
2023-02-07T03:09:11.313Z,99.99
2023-02-07T03:10:12.089Z,99.99
2023-02-07T03:11:30.400Z,99.99
2023-02-07T03:12:10.643Z,99.99
2023-02-07T03:13:10.384Z,99.99
2023-02-07T03:14:10.643Z,99.99
2023-02-07T03:15:10.382Z,99.99
2023-02-07T03:16:10.632Z,99.99
2023-02-07T03:17:10.422Z,99.99
2023-02-07T03:18:10.643Z,99.99
2023-02-07T03:19:10.370Z,99.99
2023-02-07T03:20:10.637Z,99.99
2023-02-07T03:21:30.387Z,99.99
2023-02-07T03:22:10.662Z,99.99
2023-02-07T03:23:11.040Z,99.99
2023-02-07T03:24:11.318Z,99.99
2023-02-07T03:25:10.371Z,99.99
2023-02-07T03:26:10.678Z,99.99
2023-02-07T03:27:10.433Z,99.99
2023-02-07T03:28:10.733Z,99.99
2023-02-07T03:29:10.501Z,99.99
2023-02-07T03:30:10.272Z,99.99
2023-02-07T03:31:30.632Z,99.99
2023-02-07T03:32:10.336Z,99.99
2023-02-07T03:33:10.583Z,99.99
2023-02-07T03:34:10.396Z,99.99
2023-02-07T03:35:10.163Z,99.99
2023-02-07T03:36:10.445Z,99.99
2023-02-07T03:37:10.238Z,99.99
2023-02-07T03:38:10.490Z,99.99
2023-02-07T03:39:10.290Z,99.99
2023-02-07T03:40:10.547Z,99.99
2023-02-07T03:41:30.345Z,99.99
2023-02-07T03:42:10.129Z,99.99
2023-02-07T03:43:10.386Z,99.99
2023-02-07T03:44:10.166Z,99.99
2023-02-07T03:45:11.852Z,99.99
2023-02-07T03:46:10.214Z,99.99
2023-02-07T03:47:10.503Z,99.99
2023-02-07T03:48:10.294Z,99.99
2023-02-07T03:49:10.069Z,99.99
2023-02-07T03:50:10.324Z,99.99
2023-02-07T03:51:30.169Z,99.99
2023-02-07T03:52:10.452Z,99.99
2023-02-07T03:53:10.188Z,99.99
2023-02-07T03:54:09.977Z,99.99
2023-02-07T03:55:10.237Z,99.99
2023-02-07T03:56:10.028Z,99.99
2023-02-07T03:57:10.314Z,99.99
2023-02-07T03:58:10.079Z,99.99
2023-02-07T03:59:10.367Z,99.99
2023-02-07T04:00:10.141Z,99.99
2023-02-07T04:01:30.453Z,99.99
2023-02-07T04:02:10.292Z,99.99
2023-02-07T04:03:09.986Z,99.99
2023-02-07T04:04:10.282Z,99.99
2023-02-07T04:05:10.083Z,99.99
2023-02-07T04:06:10.321Z,99.99
2023-02-07T04:07:10.151Z,99.99
2023-02-07T04:08:09.911Z,99.99
2023-02-07T04:09:11.861Z,99.99
2023-02-07T04:10:09.922Z,99.99
2023-02-07T04:11:30.207Z,99.99
2023-02-07T04:12:09.935Z,99.99
2023-02-07T04:13:10.175Z,99.99
2023-02-07T04:14:09.926Z,99.99
2023-02-07T04:15:10.189Z,99.99
2023-02-07T04:16:09.977Z,99.99
2023-02-07T04:17:10.189Z,99.99
2023-02-07T04:18:09.937Z,99.99
2023-02-07T04:19:09.699Z,99.99
2023-02-07T04:20:09.939Z,99.99
2023-02-07T04:21:30.214Z,99.99
2023-02-07T04:22:09.931Z,99.99
2023-02-07T04:23:09.699Z,99.99
2023-02-07T04:24:09.924Z,99.99
2023-02-07T04:25:09.668Z,99.99
2023-02-07T04:26:09.927Z,99.99
2023-02-07T04:27:09.667Z,99.99
2023-02-07T04:28:09.942Z,99.99
2023-02-07T04:29:09.681Z,99.99
2023-02-07T04:30:09.917Z,99.99
2023-02-07T04:31:29.726Z,99.99
2023-02-07T04:32:09.885Z,99.99
2023-02-07T04:33:09.662Z,99.99
2023-02-07T04:34:09.901Z,99.99
2023-02-07T04:35:09.647Z,99.99
2023-02-07T04:36:10.114Z,99.99
2023-02-07T04:37:09.660Z,99.99
2023-02-07T04:38:09.898Z,99.99
2023-02-07T04:39:09.669Z,99.99
2023-02-07T04:40:09.907Z,99.99
2023-02-07T04:41:29.914Z,99.99
2023-02-07T04:42:09.906Z,99.99
2023-02-07T04:43:09.654Z,99.99
2023-02-07T04:44:09.905Z,99.99
2023-02-07T04:45:09.678Z,99.99
2023-02-07T04:46:09.961Z,99.99
2023-02-07T04:47:09.657Z,99.99
2023-02-07T04:48:09.397Z,99.99
2023-02-07T04:49:11.144Z,99.99
2023-02-07T04:50:10.926Z,99.99
2023-02-07T04:51:31.200Z,99.99
2023-02-07T04:52:10.221Z,99.99
2023-02-07T04:53:10.857Z,99.99
2023-02-07T04:54:11.144Z,99.99
2023-02-07T04:55:10.945Z,99.99
2023-02-07T04:56:11.268Z,99.99
2023-02-07T04:57:10.283Z,99.99
2023-02-07T04:58:10.895Z,99.99
2023-02-07T04:59:11.202Z,99.99
2023-02-07T05:00:11.006Z,99.99
2023-02-07T05:01:29.933Z,99.99
2023-02-07T05:02:10.291Z,99.99
2023-02-07T05:03:10.871Z,99.99
2023-02-07T05:04:11.261Z,99.99
2023-02-07T05:05:10.963Z,99.99
2023-02-07T05:06:10.738Z,99.99
2023-02-07T05:07:11.054Z,99.99
2023-02-07T05:08:10.882Z,99.99
2023-02-07T05:09:10.710Z,99.99
2023-02-07T05:10:10.992Z,99.99
2023-02-07T05:11:29.334Z,99.99
2023-02-07T05:12:11.080Z,99.99
2023-02-07T05:13:10.886Z,99.99
2023-02-07T05:14:09.312Z,99.99
2023-02-07T05:15:10.996Z,99.99
2023-02-07T05:16:10.771Z,99.99
2023-02-07T05:17:11.067Z,99.99
2023-02-07T05:18:10.856Z,99.99
2023-02-07T05:19:09.229Z,99.99
2023-02-07T05:20:10.935Z,99.99
2023-02-07T05:21:29.280Z,99.99
2023-02-07T05:22:11.000Z,99.99
2023-02-07T05:23:10.885Z,99.99
2023-02-07T05:24:10.670Z,99.99
2023-02-07T05:25:09.816Z,99.99
2023-02-07T05:26:10.764Z,99.99
2023-02-07T05:27:10.646Z,99.99
2023-02-07T05:28:10.977Z,99.99
2023-02-07T05:29:10.705Z,99.99
2023-02-07T05:30:09.796Z,99.99
2023-02-07T05:31:29.422Z,99.99
2023-02-07T05:32:10.529Z,99.99
2023-02-07T05:33:10.838Z,99.99
2023-02-07T05:34:10.616Z,99.99
2023-02-07T05:35:10.140Z,99.99
2023-02-07T05:36:09.818Z,99.99
2023-02-07T05:37:10.511Z,99.99
2023-02-07T05:38:10.822Z,99.99
2023-02-07T05:39:10.687Z,99.99
2023-02-07T05:40:10.472Z,99.99
2023-02-07T05:41:29.297Z,99.99
2023-02-07T05:42:10.555Z,99.99
2023-02-07T05:43:10.877Z,99.99
2023-02-07T05:44:10.646Z,99.99
2023-02-07T05:45:10.457Z,99.84
2023-02-07T05:46:09.952Z,99.94
2023-02-07T05:47:09.846Z,99.99
2023-02-07T05:48:08.922Z,99.99
2023-02-07T05:49:09.177Z,99.99
2023-02-07T05:50:08.899Z,99.94
2023-02-07T05:51:30.655Z,99.94
2023-02-07T05:52:09.713Z,99.88
2023-02-07T05:53:08.326Z,99.77
2023-02-07T05:54:08.257Z,99.88
2023-02-07T05:55:09.828Z,99.88
2023-02-07T05:56:09.105Z,99.77
2023-02-07T05:57:08.879Z,99.67
2023-02-07T05:58:09.127Z,99.77
2023-02-07T05:59:08.875Z,99.67
2023-02-07T06:00:09.155Z,99.67
2023-02-07T06:01:28.908Z,99.71
2023-02-07T06:02:09.186Z,99.82
2023-02-07T06:03:08.924Z,99.88
2023-02-07T06:04:08.682Z,99.88
2023-02-07T06:05:08.931Z,99.88
2023-02-07T06:06:08.714Z,99.82
2023-02-07T06:07:08.920Z,99.71
2023-02-07T06:08:08.675Z,99.71
2023-02-07T06:09:08.934Z,99.71
2023-02-07T06:10:08.687Z,99.82
2023-02-07T06:11:28.926Z,99.71
2023-02-07T06:12:08.665Z,99.71
2023-02-07T06:13:08.925Z,99.71
2023-02-07T06:14:08.679Z,99.71
2023-02-07T06:15:08.946Z,99.71
2023-02-07T06:16:08.765Z,99.61
2023-02-07T06:17:08.967Z,99.71
2023-02-07T06:18:08.747Z,99.71
2023-02-07T06:19:08.944Z,99.61
2023-02-07T06:20:08.696Z,99.51
2023-02-07T06:21:44.377Z,99.51
2023-02-07T06:22:09.698Z,99.51
2023-02-07T06:23:08.927Z,99.40
2023-02-07T06:24:08.691Z,99.40
2023-02-07T06:25:08.926Z,99.55
2023-02-07T06:26:08.705Z,99.51
2023-02-07T06:27:08.435Z,99.61
2023-02-07T06:28:09.724Z,99.51
2023-02-07T06:29:08.443Z,99.51
2023-02-07T06:30:08.706Z,99.51
2023-02-07T06:31:28.450Z,99.40
2023-02-07T06:32:08.720Z,99.30
2023-02-07T06:33:08.456Z,99.19
2023-02-07T06:34:08.734Z,99.13
2023-02-07T06:35:08.457Z,99.19
2023-02-07T06:36:08.707Z,99.08
2023-02-07T06:37:08.458Z,99.19
2023-02-07T06:38:08.745Z,99.08
2023-02-07T06:39:08.495Z,99.08
2023-02-07T06:40:09.669Z,98.98
2023-02-07T06:41:28.502Z,98.98
2023-02-07T06:42:08.760Z,98.77
2023-02-07T06:43:09.096Z,98.82
2023-02-07T06:44:08.766Z,98.71
2023-02-07T06:45:08.510Z,98.71
2023-02-07T06:46:08.819Z,98.71
2023-02-07T06:47:08.548Z,98.71
2023-02-07T06:48:08.375Z,98.71
2023-02-07T06:49:08.578Z,98.71
2023-02-07T06:50:09.302Z,98.50
2023-02-07T06:51:28.590Z,98.50
2023-02-07T06:52:08.323Z,98.50
2023-02-07T06:53:08.565Z,98.50
2023-02-07T06:54:08.347Z,98.61
2023-02-07T06:55:08.585Z,98.61
2023-02-07T06:56:08.433Z,98.50
2023-02-07T06:57:08.589Z,98.50
2023-02-07T06:58:08.425Z,98.50
2023-02-07T06:59:08.597Z,98.61
2023-02-07T07:00:08.433Z,98.71
2023-02-07T07:01:28.182Z,98.61
2023-02-07T07:02:08.492Z,98.71
2023-02-07T07:03:09.518Z,98.61
2023-02-07T07:04:08.513Z,98.71
2023-02-07T07:05:08.245Z,98.61
2023-02-07T07:06:08.505Z,98.61
2023-02-07T07:07:08.242Z,98.50
2023-02-07T07:08:08.517Z,98.50
2023-02-07T07:09:08.248Z,98.50
2023-02-07T07:10:08.543Z,98.50
2023-02-07T07:11:29.815Z,98.61
2023-02-07T07:12:08.121Z,98.61
2023-02-07T07:13:08.357Z,98.71
2023-02-07T07:14:08.252Z,98.71
2023-02-07T07:15:08.420Z,98.82
2023-02-07T07:16:08.235Z,98.71
2023-02-07T07:17:08.420Z,98.71
2023-02-07T07:18:08.160Z,98.71
2023-02-07T07:19:08.424Z,98.82
2023-02-07T07:20:08.165Z,98.92
2023-02-07T07:21:28.441Z,98.82
2023-02-07T07:22:08.158Z,98.71
2023-02-07T07:23:07.959Z,98.71
2023-02-07T07:24:08.185Z,98.71
2023-02-07T07:25:07.946Z,98.61
2023-02-07T07:26:08.213Z,98.50
2023-02-07T07:27:07.970Z,98.39
2023-02-07T07:28:08.256Z,98.39
2023-02-07T07:29:07.964Z,98.29
2023-02-07T07:30:10.390Z,98.29
2023-02-07T07:31:28.019Z,98.29
2023-02-07T07:32:08.209Z,98.19
2023-02-07T07:33:07.975Z,98.19
2023-02-07T07:34:08.215Z,98.19
2023-02-07T07:35:08.000Z,98.08
2023-02-07T07:36:09.812Z,98.08
2023-02-07T07:37:08.000Z,97.98
2023-02-07T07:38:08.269Z,97.87
2023-02-07T07:39:08.029Z,97.87
2023-02-07T07:40:07.747Z,97.87
2023-02-07T07:41:28.029Z,97.87
2023-02-07T07:42:07.759Z,97.77
2023-02-07T07:43:08.028Z,97.72
2023-02-07T07:44:07.742Z,97.72
2023-02-07T07:45:08.005Z,97.72
2023-02-07T07:46:07.749Z,97.62
2023-02-07T07:47:08.000Z,97.41
2023-02-07T07:48:07.838Z,97.30
2023-02-07T07:49:08.016Z,97.30
2023-02-07T07:50:07.762Z,97.20
2023-02-07T07:51:28.048Z,97.30
2023-02-07T07:52:07.805Z,97.16
2023-02-07T07:53:08.050Z,97.26
2023-02-07T07:54:07.805Z,97.22
2023-02-07T07:55:08.076Z,96.81
2023-02-07T07:56:07.806Z,96.25
2023-02-07T07:57:08.077Z,95.64
2023-02-07T07:58:07.828Z,94.65
2023-02-07T07:59:12.133Z,93.98
2023-02-07T08:00:08.843Z,93.00
2023-02-07T08:01:27.588Z,91.91
2023-02-07T08:02:07.845Z,90.72
2023-02-07T08:03:07.575Z,89.26
2023-02-07T08:04:07.900Z,88.64
2023-02-07T08:05:07.577Z,88.39
2023-02-07T08:06:09.366Z,87.41
2023-02-07T08:07:09.117Z,86.99
2023-02-07T08:08:09.944Z,86.85
2023-02-07T08:09:08.719Z,86.40
2023-02-07T08:10:09.018Z,85.67
2023-02-07T08:11:27.834Z,84.77
2023-02-07T08:12:09.557Z,85.33
2023-02-07T08:13:09.838Z,85.89
2023-02-07T08:14:09.201Z,86.87
2023-02-07T08:15:09.041Z,87.74
2023-02-07T08:16:09.375Z,88.62
2023-02-07T08:17:09.153Z,89.39
2023-02-07T08:18:09.012Z,90.43
2023-02-07T08:19:08.749Z,91.00
2023-02-07T08:20:09.604Z,91.72
2023-02-07T08:21:27.892Z,92.50
2023-02-07T08:22:09.110Z,92.92
2023-02-07T08:23:09.439Z,93.23
2023-02-07T08:24:09.252Z,93.65
2023-02-07T08:25:09.022Z,93.96
2023-02-07T08:26:07.469Z,94.32
2023-02-07T08:27:09.017Z,94.64
2023-02-07T08:28:07.506Z,94.95
2023-02-07T08:29:09.708Z,95.11
2023-02-07T08:30:08.574Z,95.32
2023-02-07T08:31:27.671Z,95.53
2023-02-07T08:32:09.213Z,95.53
2023-02-07T08:33:07.540Z,95.53
2023-02-07T08:34:09.209Z,95.53
2023-02-07T08:35:09.006Z,95.64
2023-02-07T08:36:08.786Z,95.84
2023-02-07T08:37:07.711Z,95.90
2023-02-07T08:38:07.899Z,95.80
2023-02-07T08:39:08.644Z,95.76
2023-02-07T08:40:08.932Z,95.55
2023-02-07T08:41:27.273Z,95.15
2023-02-07T08:42:09.459Z,94.96
2023-02-07T08:43:08.641Z,93.79
2023-02-07T08:44:09.535Z,92.05
2023-02-07T08:45:08.849Z,89.09
2023-02-07T08:46:07.949Z,85.96
2023-02-07T08:47:09.526Z,82.53
2023-02-07T08:48:08.823Z,78.39
2023-02-07T08:49:07.935Z,75.87
2023-02-07T08:50:08.967Z,74.40
2023-02-07T08:51:27.286Z,72.61
2023-02-07T08:52:09.012Z,72.19
2023-02-07T08:53:08.777Z,71.75
2023-02-07T08:54:07.794Z,70.86
2023-02-07T08:55:09.406Z,69.25
2023-02-07T08:56:08.206Z,67.78
2023-02-07T08:57:08.483Z,67.30
2023-02-07T08:58:08.794Z,67.50
2023-02-07T08:59:07.200Z,67.81
2023-02-07T09:00:08.763Z,66.82
2023-02-07T09:01:27.199Z,65.66
2023-02-07T09:02:09.549Z,65.12
2023-02-07T09:03:08.282Z,63.54
2023-02-07T09:04:07.783Z,63.82
2023-02-07T09:05:08.898Z,63.32
2023-02-07T09:06:08.669Z,61.52
2023-02-07T09:07:08.473Z,60.21
2023-02-07T09:08:09.281Z,59.55
2023-02-07T09:09:20.553Z,56.76
2023-02-07T09:10:08.372Z,56.07
2023-02-07T09:12:36.161Z,54.39
2023-02-07T09:12:41.017Z,53.02
2023-02-07T09:13:41.774Z,52.08
2023-02-07T09:15:41.028Z,51.34
2023-02-07T09:15:45.817Z,51.64
2023-02-07T09:16:46.618Z,50.60
2023-02-07T09:23:45.832Z,50.37
2023-02-07T09:23:51.071Z,48.19
2023-02-07T09:26:55.302Z,48.07
2023-02-07T09:27:00.112Z,47.44
2023-02-07T09:28:22.508Z,47.06
2023-02-07T09:29:00.723Z,46.86
2023-02-07T09:35:44.966Z,47.85
2023-02-07T09:42:17.439Z,45.55
2023-02-07T09:44:44.371Z,47.53
2023-02-07T09:44:49.597Z,48.23
2023-02-07T09:45:50.041Z,49.78
2023-02-07T09:46:49.783Z,50.21
2023-02-07T09:47:50.023Z,50.89
2023-02-07T09:48:49.812Z,51.81
2023-02-07T09:50:11.533Z,52.27
2023-02-07T09:50:49.856Z,52.07
2023-02-07T09:51:50.077Z,50.92
2023-02-07T09:52:49.830Z,51.03
2023-02-07T09:53:50.073Z,51.56
2023-02-07T09:54:49.830Z,52.32
2023-02-07T09:55:50.088Z,54.08
2023-02-07T09:56:49.836Z,53.49
2023-02-07T09:57:50.080Z,53.57
2023-02-07T09:58:49.843Z,54.23
2023-02-07T10:00:10.453Z,55.18
2023-02-07T10:00:49.908Z,55.38
2023-02-07T10:01:49.644Z,54.95
2023-02-07T10:02:49.902Z,53.57
2023-02-07T10:05:02.134Z,52.42
2023-02-07T10:05:08.958Z,52.27
2023-02-07T10:10:16.443Z,50.92
2023-02-07T10:10:22.727Z,48.52
2023-02-07T11:40:26.575Z,47.49
2023-02-07T12:13:39.854Z,34.38
2023-02-07T12:14:05.631Z,35.78
2023-02-07T12:16:27.010Z,36.77
2023-02-07T12:16:31.937Z,35.11
2023-02-07T12:24:22.041Z,34.36
2023-02-07T12:24:28.317Z,34.52
2023-02-07T12:25:30.056Z,35.35
2023-02-07T12:26:29.044Z,34.74
2023-02-07T12:38:21.059Z,34.05
2023-02-07T12:38:27.316Z,39.17
2023-02-07T12:39:28.139Z,40.48
2023-02-07T12:40:46.556Z,43.81
2023-02-07T12:41:28.197Z,44.96
2023-02-07T12:42:27.609Z,46.94
2023-02-07T12:43:27.059Z,47.37
2023-02-07T12:44:28.254Z,47.80
2023-02-07T12:45:27.589Z,49.25
2023-02-07T12:46:27.909Z,48.56
2023-02-07T12:47:26.797Z,48.48
2023-02-07T12:48:27.038Z,49.11
2023-02-07T12:49:27.043Z,49.77
2023-02-07T12:50:46.656Z,50.72
2023-02-07T12:51:27.873Z,51.64
2023-02-07T12:52:27.737Z,51.46
2023-02-07T12:53:27.282Z,51.48
2023-02-07T12:54:29.944Z,52.72
2023-02-07T12:55:27.062Z,53.28
2023-02-07T12:56:28.038Z,52.64
2023-02-07T12:57:26.501Z,53.05
2023-02-07T12:58:27.738Z,53.05
2023-02-07T12:59:28.071Z,53.15
2023-02-07T13:00:46.398Z,54.30
2023-02-07T13:01:27.723Z,52.87
2023-02-07T13:02:26.560Z,53.38
2023-02-07T13:03:27.819Z,54.00
2023-02-07T13:04:27.605Z,54.30
2023-02-07T13:05:27.437Z,55.85
2023-02-07T13:06:27.040Z,54.41
2023-02-07T13:07:26.534Z,53.51
2023-02-07T13:08:27.124Z,53.81
2023-02-07T13:09:27.684Z,54.46
2023-02-07T13:10:46.510Z,53.53
2023-02-07T13:11:27.711Z,54.49
2023-02-07T13:12:26.596Z,54.17
2023-02-07T13:13:27.424Z,54.38
2023-02-07T13:14:27.718Z,55.41
2023-02-07T13:15:27.531Z,54.79
2023-02-07T13:16:27.914Z,54.72
2023-02-07T13:17:26.350Z,54.82
2023-02-07T13:18:26.708Z,55.23
2023-02-07T13:19:27.808Z,55.74
2023-02-07T13:20:47.629Z,55.54
2023-02-07T13:21:25.943Z,55.87
2023-02-07T13:22:26.167Z,56.70
2023-02-07T13:23:26.415Z,57.73
2023-02-07T13:24:26.177Z,57.08
2023-02-07T13:25:25.917Z,57.90
2023-02-07T13:26:26.184Z,56.49
2023-02-07T13:27:25.938Z,55.57
2023-02-07T13:28:26.205Z,56.29
2023-02-07T13:29:25.965Z,57.52
2023-02-07T13:30:47.702Z,58.89
2023-02-07T13:31:26.135Z,59.09
2023-02-07T13:32:26.258Z,59.61
2023-02-07T13:33:26.034Z,59.61
2023-02-07T13:34:25.764Z,59.61
2023-02-07T13:35:26.049Z,60.74
2023-02-07T13:36:25.778Z,61.18
2023-02-07T13:37:26.523Z,60.87
2023-02-07T13:38:25.769Z,60.66
2023-02-07T13:39:26.029Z,60.97
2023-02-07T13:40:46.561Z,60.56
2023-02-07T13:41:26.076Z,61.07
2023-02-07T13:42:25.827Z,61.59
2023-02-07T13:43:26.088Z,60.97
2023-02-07T13:44:25.825Z,60.56
2023-02-07T13:45:26.100Z,60.25
2023-02-07T13:46:27.171Z,59.84
2023-02-07T13:47:26.129Z,59.77
2023-02-07T13:48:25.851Z,60.49
2023-02-07T13:49:26.117Z,61.52
2023-02-07T13:50:46.571Z,59.84
2023-02-07T13:51:25.676Z,59.84
2023-02-07T13:52:25.916Z,60.56
2023-02-07T13:53:25.680Z,61.21
2023-02-07T13:54:25.915Z,60.87
2023-02-07T13:55:25.676Z,61.61
2023-02-07T13:56:25.930Z,61.90
2023-02-07T13:57:25.694Z,61.59
2023-02-07T13:58:25.944Z,60.46
2023-02-07T13:59:25.698Z,61.07
2023-02-07T14:00:46.677Z,60.15
2023-02-07T14:01:25.766Z,59.12
2023-02-07T14:02:25.521Z,60.56
2023-02-07T14:03:25.754Z,59.86
2023-02-07T14:04:25.524Z,59.66
2023-02-07T14:05:25.750Z,60.59
2023-02-07T14:06:25.499Z,60.17
2023-02-07T14:07:25.741Z,59.56
2023-02-07T14:08:25.568Z,59.86
2023-02-07T14:09:25.751Z,59.04
2023-02-07T14:10:47.013Z,59.14
2023-02-07T14:11:25.807Z,58.84
2023-02-07T14:12:25.547Z,59.86
2023-02-07T14:13:25.807Z,59.86
2023-02-07T14:14:25.586Z,59.04
2023-02-07T14:15:25.820Z,58.94
2023-02-07T14:16:25.560Z,58.84
2023-02-07T14:17:25.342Z,58.42
2023-02-07T14:18:25.579Z,58.01
2023-02-07T14:19:25.351Z,58.32
2023-02-07T14:20:46.093Z,58.11
2023-02-07T14:21:25.390Z,57.50
2023-02-07T14:22:25.658Z,56.67
2023-02-07T14:23:25.431Z,57.50
2023-02-07T14:24:25.666Z,58.73
2023-02-07T14:25:25.429Z,59.14
2023-02-07T14:26:25.666Z,58.22
2023-02-07T14:27:25.434Z,58.32
2023-02-07T14:28:25.688Z,58.73
2023-02-07T14:29:25.542Z,58.35
2023-02-07T14:30:46.823Z,59.38
2023-02-07T14:31:25.704Z,59.79
2023-02-07T14:32:25.578Z,60.31
2023-02-07T14:33:25.328Z,60.41
2023-02-07T14:34:25.583Z,59.69
2023-02-07T14:35:25.332Z,60.10
2023-02-07T14:36:25.579Z,60.21
2023-02-07T14:37:25.331Z,60.72
2023-02-07T14:38:25.571Z,60.72
2023-02-07T14:39:25.338Z,60.41
2023-02-07T14:40:46.316Z,60.10
2023-02-07T14:41:25.427Z,60.21
2023-02-07T14:42:25.167Z,60.10
2023-02-07T14:43:25.444Z,59.79
2023-02-07T14:44:25.184Z,59.28
2023-02-07T14:45:25.444Z,58.48
2023-02-07T14:46:25.205Z,59.09
2023-02-07T14:47:25.424Z,59.72
2023-02-07T14:48:25.141Z,60.64
2023-02-07T14:49:25.414Z,60.64
2023-02-07T14:50:46.107Z,60.64
2023-02-07T14:51:25.471Z,60.54
2023-02-07T14:52:25.213Z,60.54
2023-02-07T14:53:25.458Z,60.85
2023-02-07T14:54:25.188Z,60.75
2023-02-07T14:55:24.964Z,61.26
2023-02-07T14:56:25.219Z,61.40
2023-02-07T14:57:24.977Z,61.80
2023-02-07T14:58:25.213Z,61.08
2023-02-07T14:59:24.992Z,62.29
2023-02-07T15:00:46.737Z,61.05
2023-02-07T15:01:25.143Z,61.26
2023-02-07T15:02:25.284Z,60.85
2023-02-07T15:03:25.014Z,61.16
2023-02-07T15:04:25.262Z,61.05
2023-02-07T15:05:25.036Z,61.88
2023-02-07T15:06:32.121Z,62.19
2023-02-07T15:07:31.297Z,62.29
2023-02-07T15:08:25.068Z,61.05
2023-02-07T15:09:24.815Z,60.95
2023-02-07T15:10:46.921Z,61.88
2023-02-07T15:11:25.196Z,61.78
2023-02-07T15:12:27.290Z,61.36
2023-02-07T15:13:25.196Z,61.78
2023-02-07T15:14:24.964Z,61.26
2023-02-07T15:15:25.210Z,61.16
2023-02-07T15:16:25.020Z,60.77
2023-02-07T15:17:28.874Z,61.98
2023-02-07T15:18:26.038Z,61.98
2023-02-07T15:19:24.745Z,61.80
2023-02-07T15:20:46.491Z,62.32
2023-02-07T15:21:24.775Z,62.63
2023-02-07T15:22:25.847Z,62.84
2023-02-07T15:23:24.774Z,62.32
2023-02-07T15:24:25.057Z,62.22
2023-02-07T15:25:24.797Z,61.50
2023-02-07T15:26:25.101Z,61.91
2023-02-07T15:27:24.825Z,62.63
2023-02-07T15:28:27.384Z,62.94
2023-02-07T15:29:26.337Z,62.94
2023-02-07T15:30:46.137Z,63.69
2023-02-07T15:31:25.080Z,63.18